sensor_id;sensor_type;location;lat;lon;timestamp;pressure;altitude;pressure_sealevel;temperature;humidity
60170;BME280;46042;49.444;6.862;2022-12-29T00:02:26;97998.53;;;8.09;100.00
60170;BME280;46042;49.444;6.862;2022-12-29T00:04:53;98000.09;;;8.12;100.00
60170;BME280;46042;49.444;6.862;2022-12-29T00:07:20;97983.13;;;8.18;100.00
60170;BME280;46042;49.444;6.862;2022-12-29T00:09:46;98000.75;;;8.16;100.00
60170;BME280;46042;49.444;6.862;2022-12-29T00:12:13;97999.91;;;8.15;100.00
60170;BME280;46042;49.444;6.862;2022-12-29T00:14:40;97992.13;;;8.14;100.00
60170;BME280;46042;49.444;6.862;2022-12-29T00:17:25;97994.75;;;8.14;100.00
60170;BME280;46042;49.444;6.862;2022-12-29T00:19:51;97997.19;;;8.17;100.00
60170;BME280;46042;49.444;6.862;2022-12-29T00:22:36;98002.31;;;8.05;100.00
60170;BME280;46042;49.444;6.862;2022-12-29T00:25:22;97996.50;;;8.00;100.00
60170;BME280;46042;49.444;6.862;2022-12-29T00:28:10;97993.56;;;7.92;100.00
60170;BME280;46042;49.444;6.862;2022-12-29T00:30:59;97989.47;;;7.88;100.00
60170;BME280;46042;49.444;6.862;2022-12-29T00:33:45;97991.31;;;7.86;100.00
60170;BME280;46042;49.444;6.862;2022-12-29T00:36:34;97992.09;;;7.88;100.00
60170;BME280;46042;49.444;6.862;2022-12-29T00:39:07;97972.34;;;7.82;100.00
60170;BME280;46042;49.444;6.862;2022-12-29T00:41:53;97977.03;;;7.77;100.00
60170;BME280;46042;49.444;6.862;2022-12-29T00:44:40;97974.13;;;7.81;100.00
60170;BME280;46042;49.444;6.862;2022-12-29T00:47:06;97972.44;;;7.80;100.00
60170;BME280;46042;49.444;6.862;2022-12-29T00:49:33;97979.66;;;7.77;100.00
60170;BME280;46042;49.444;6.862;2022-12-29T00:52:06;97962.06;;;7.79;100.00
60170;BME280;46042;49.444;6.862;2022-12-29T00:54:35;97962.81;;;7.81;100.00
60170;BME280;46042;49.444;6.862;2022-12-29T00:57:03;97967.19;;;7.80;100.00
60170;BME280;46042;49.444;6.862;2022-12-29T00:59:30;97975.91;;;7.81;100.00
60170;BME280;46042;49.444;6.862;2022-12-29T01:01:57;97977.69;;;7.80;100.00
60170;BME280;46042;49.444;6.862;2022-12-29T01:04:25;97961.00;;;7.81;100.00
60170;BME280;46042;49.444;6.862;2022-12-29T01:06:52;97976.53;;;7.85;100.00
60170;BME280;46042;49.444;6.862;2022-12-29T01:09:19;97965.22;;;7.84;100.00
60170;BME280;46042;49.444;6.862;2022-12-29T01:12:06;97967.63;;;7.87;100.00
60170;BME280;46042;49.444;6.862;2022-12-29T01:14:33;97964.91;;;7.89;100.00
60170;BME280;46042;49.444;6.862;2022-12-29T01:17:00;97960.63;;;7.88;100.00
60170;BME280;46042;49.444;6.862;2022-12-29T01:19:26;97953.59;;;8.01;100.00
60170;BME280;46042;49.444;6.862;2022-12-29T01:21:53;97948.56;;;7.98;100.00
60170;BME280;46042;49.444;6.862;2022-12-29T01:24:20;97959.06;;;7.98;100.00
60170;BME280;46042;49.444;6.862;2022-12-29T01:26:48;97945.63;;;8.03;100.00
60170;BME280;46042;49.444;6.862;2022-12-29T01:29:15;97938.19;;;7.96;100.00
60170;BME280;46042;49.444;6.862;2022-12-29T01:31:42;97940.69;;;7.98;100.00
60170;BME280;46042;49.444;6.862;2022-12-29T01:34:09;97939.16;;;8.08;100.00
60170;BME280;46042;49.444;6.862;2022-12-29T01:36:36;97946.28;;;8.06;100.00
60170;BME280;46042;49.444;6.862;2022-12-29T01:39:02;97931.16;;;8.10;100.00
60170;BME280;46042;49.444;6.862;2022-12-29T01:41:29;97928.88;;;8.05;100.00
60170;BME280;46042;49.444;6.862;2022-12-29T01:43:57;97936.72;;;8.05;100.00
60170;BME280;46042;49.444;6.862;2022-12-29T01:46:33;97931.06;;;8.11;100.00
60170;BME280;46042;49.444;6.862;2022-12-29T01:51:47;97928.44;;;8.11;100.00
60170;BME280;46042;49.444;6.862;2022-12-29T01:54:46;97930.84;;;8.15;100.00
60170;BME280;46042;49.444;6.862;2022-12-29T01:57:20;97932.31;;;8.06;100.00
60170;BME280;46042;49.444;6.862;2022-12-29T01:59:54;97930.53;;;8.06;100.00
60170;BME280;46042;49.444;6.862;2022-12-29T02:02:23;97942.59;;;8.09;100.00
60170;BME280;46042;49.444;6.862;2022-12-29T02:04:51;97920.22;;;8.03;100.00
60170;BME280;46042;49.444;6.862;2022-12-29T02:07:21;97919.41;;;8.03;100.00
60170;BME280;46042;49.444;6.862;2022-12-29T02:09:50;97939.25;;;8.07;100.00
60170;BME280;46042;49.444;6.862;2022-12-29T02:12:19;97922.25;;;8.13;100.00
60170;BME280;46042;49.444;6.862;2022-12-29T02:14:47;97916.47;;;8.07;100.00
60170;BME280;46042;49.444;6.862;2022-12-29T02:28:47;97890.25;;;8.07;100.00
60170;BME280;46042;49.444;6.862;2022-12-29T02:34:25;97871.56;;;8.12;100.00
60170;BME280;46042;49.444;6.862;2022-12-29T02:39:41;97892.88;;;8.33;100.00
60170;BME280;46042;49.444;6.862;2022-12-29T02:42:51;97880.47;;;8.22;100.00
60170;BME280;46042;49.444;6.862;2022-12-29T02:45:38;97888.78;;;8.29;100.00
60170;BME280;46042;49.444;6.862;2022-12-29T02:48:32;97880.81;;;8.31;100.00
60170;BME280;46042;49.444;6.862;2022-12-29T02:51:09;97885.72;;;8.35;100.00
60170;BME280;46042;49.444;6.862;2022-12-29T02:53:39;97869.47;;;8.30;100.00
60170;BME280;46042;49.444;6.862;2022-12-29T02:56:25;97876.72;;;8.39;100.00
60170;BME280;46042;49.444;6.862;2022-12-29T02:58:51;97876.59;;;8.41;100.00
60170;BME280;46042;49.444;6.862;2022-12-29T03:01:38;97864.84;;;8.34;100.00
60170;BME280;46042;49.444;6.862;2022-12-29T03:07:31;97868.00;;;8.26;100.00
60170;BME280;46042;49.444;6.862;2022-12-29T03:15:34;97874.06;;;8.26;100.00
60170;BME280;46042;49.444;6.862;2022-12-29T03:21:13;97857.72;;;8.23;100.00
60170;BME280;46042;49.444;6.862;2022-12-29T03:23:42;97859.28;;;8.25;100.00
60170;BME280;46042;49.444;6.862;2022-12-29T03:26:11;97858.47;;;8.25;100.00
60170;BME280;46042;49.444;6.862;2022-12-29T03:28:46;97836.31;;;8.16;100.00
60170;BME280;46042;49.444;6.862;2022-12-29T03:31:15;97864.44;;;8.27;100.00
60170;BME280;46042;49.444;6.862;2022-12-29T03:33:44;97856.56;;;8.27;100.00
60170;BME280;46042;49.444;6.862;2022-12-29T03:36:20;97858.75;;;8.20;100.00
60170;BME280;46042;49.444;6.862;2022-12-29T03:38:51;97853.00;;;8.15;100.00
60170;BME280;46042;49.444;6.862;2022-12-29T03:41:25;97852.16;;;8.15;100.00
60170;BME280;46042;49.444;6.862;2022-12-29T03:43:55;97849.84;;;8.10;100.00
60170;BME280;46042;49.444;6.862;2022-12-29T03:46:23;97847.34;;;8.08;100.00
60170;BME280;46042;49.444;6.862;2022-12-29T03:48:50;97851.00;;;8.06;100.00
60170;BME280;46042;49.444;6.862;2022-12-29T03:51:16;97852.69;;;8.07;100.00
60170;BME280;46042;49.444;6.862;2022-12-29T03:53:44;97849.31;;;8.05;100.00
60170;BME280;46042;49.444;6.862;2022-12-29T03:56:10;97858.03;;;8.05;100.00
60170;BME280;46042;49.444;6.862;2022-12-29T03:58:37;97836.63;;;7.99;100.00
60170;BME280;46042;49.444;6.862;2022-12-29T04:01:04;97827.28;;;7.94;100.00
60170;BME280;46042;49.444;6.862;2022-12-29T04:03:30;97838.09;;;7.90;100.00
60170;BME280;46042;49.444;6.862;2022-12-29T04:05:57;97844.59;;;7.97;100.00
60170;BME280;46042;49.444;6.862;2022-12-29T04:08:24;97820.03;;;7.98;100.00
60170;BME280;46042;49.444;6.862;2022-12-29T04:10:51;97840.38;;;7.94;100.00
60170;BME280;46042;49.444;6.862;2022-12-29T04:13:17;97830.03;;;7.93;100.00
60170;BME280;46042;49.444;6.862;2022-12-29T04:15:45;97835.34;;;7.91;100.00
60170;BME280;46042;49.444;6.862;2022-12-29T04:18:12;97837.25;;;8.02;100.00
60170;BME280;46042;49.444;6.862;2022-12-29T04:20:39;97828.44;;;8.03;100.00
60170;BME280;46042;49.444;6.862;2022-12-29T04:23:26;97835.56;;;8.01;100.00
60170;BME280;46042;49.444;6.862;2022-12-29T04:25:52;97833.88;;;8.00;100.00
60170;BME280;46042;49.444;6.862;2022-12-29T04:28:19;97843.34;;;8.03;100.00
60170;BME280;46042;49.444;6.862;2022-12-29T04:30:46;97846.91;;;8.02;100.00
60170;BME280;46042;49.444;6.862;2022-12-29T04:33:14;97832.22;;;7.99;100.00
60170;BME280;46042;49.444;6.862;2022-12-29T04:35:44;97830.88;;;8.06;100.00
60170;BME280;46042;49.444;6.862;2022-12-29T04:38:11;97836.22;;;8.05;100.00
60170;BME280;46042;49.444;6.862;2022-12-29T04:40:39;97835.91;;;8.09;100.00
60170;BME280;46042;49.444;6.862;2022-12-29T04:43:06;97841.03;;;8.11;100.00
60170;BME280;46042;49.444;6.862;2022-12-29T04:45:33;97842.06;;;8.21;100.00
60170;BME280;46042;49.444;6.862;2022-12-29T04:48:00;97835.06;;;8.22;100.00
60170;BME280;46042;49.444;6.862;2022-12-29T04:50:26;97837.03;;;8.18;100.00
60170;BME280;46042;49.444;6.862;2022-12-29T04:52:53;97837.69;;;8.22;100.00
60170;BME280;46042;49.444;6.862;2022-12-29T04:55:20;97844.28;;;8.15;100.00
60170;BME280;46042;49.444;6.862;2022-12-29T04:57:47;97839.97;;;8.14;100.00
60170;BME280;46042;49.444;6.862;2022-12-29T05:00:14;97836.31;;;8.16;100.00
60170;BME280;46042;49.444;6.862;2022-12-29T05:02:40;97840.84;;;8.14;100.00
60170;BME280;46042;49.444;6.862;2022-12-29T05:05:07;97833.56;;;8.18;100.00
60170;BME280;46042;49.444;6.862;2022-12-29T05:07:34;97844.06;;;8.18;100.00
60170;BME280;46042;49.444;6.862;2022-12-29T05:10:03;97832.75;;;8.17;100.00
60170;BME280;46042;49.444;6.862;2022-12-29T05:12:33;97845.44;;;8.10;100.00
60170;BME280;46042;49.444;6.862;2022-12-29T05:15:00;97837.44;;;8.12;100.00
60170;BME280;46042;49.444;6.862;2022-12-29T05:17:29;97827.81;;;8.13;100.00
60170;BME280;46042;49.444;6.862;2022-12-29T05:19:56;97840.63;;;8.17;100.00
60170;BME280;46042;49.444;6.862;2022-12-29T05:22:23;97824.25;;;8.14;100.00
60170;BME280;46042;49.444;6.862;2022-12-29T05:24:49;97827.72;;;8.14;100.00
60170;BME280;46042;49.444;6.862;2022-12-29T05:27:16;97825.09;;;8.14;100.00
60170;BME280;46042;49.444;6.862;2022-12-29T05:29:44;97810.28;;;8.13;100.00
60170;BME280;46042;49.444;6.862;2022-12-29T05:32:11;97816.16;;;8.17;100.00
60170;BME280;46042;49.444;6.862;2022-12-29T05:34:37;97815.44;;;8.15;100.00
60170;BME280;46042;49.444;6.862;2022-12-29T05:37:04;97811.22;;;8.12;100.00
60170;BME280;46042;49.444;6.862;2022-12-29T05:39:31;97814.91;;;8.09;100.00
60170;BME280;46042;49.444;6.862;2022-12-29T05:41:58;97816.06;;;8.05;100.00
60170;BME280;46042;49.444;6.862;2022-12-29T05:44:24;97815.66;;;8.11;100.00
60170;BME280;46042;49.444;6.862;2022-12-29T05:46:51;97813.03;;;8.11;100.00
60170;BME280;46042;49.444;6.862;2022-12-29T05:49:18;97810.50;;;8.10;100.00
60170;BME280;46042;49.444;6.862;2022-12-29T05:51:44;97805.25;;;8.10;100.00
60170;BME280;46042;49.444;6.862;2022-12-29T05:54:11;97810.28;;;8.13;100.00
60170;BME280;46042;49.444;6.862;2022-12-29T05:56:37;97817.75;;;8.19;100.00
60170;BME280;46042;49.444;6.862;2022-12-29T05:59:04;97821.41;;;8.17;100.00
60170;BME280;46042;49.444;6.862;2022-12-29T06:01:31;97821.41;;;8.17;100.00
60170;BME280;46042;49.444;6.862;2022-12-29T06:03:58;97827.91;;;8.11;100.00
60170;BME280;46042;49.444;6.862;2022-12-29T06:06:25;97823.72;;;8.08;100.00
60170;BME280;46042;49.444;6.862;2022-12-29T06:08:51;97835.56;;;8.01;100.00
60170;BME280;46042;49.444;6.862;2022-12-29T06:11:18;97825.72;;;7.92;100.00
60170;BME280;46042;49.444;6.862;2022-12-29T06:13:45;97838.94;;;7.90;100.00
60170;BME280;46042;49.444;6.862;2022-12-29T06:16:11;97824.25;;;7.88;100.00
60170;BME280;46042;49.444;6.862;2022-12-29T06:18:38;97829.81;;;7.83;100.00
60170;BME280;46042;49.444;6.862;2022-12-29T06:21:05;97830.75;;;7.82;100.00
60170;BME280;46042;49.444;6.862;2022-12-29T06:23:32;97824.66;;;7.81;100.00
60170;BME280;46042;49.444;6.862;2022-12-29T06:25:59;97835.28;;;7.80;100.00
60170;BME280;46042;49.444;6.862;2022-12-29T06:28:25;97834.13;;;7.84;100.00
60170;BME280;46042;49.444;6.862;2022-12-29T06:30:52;97828.78;;;7.99;100.00
60170;BME280;46042;49.444;6.862;2022-12-29T06:33:19;97821.41;;;8.04;100.00
60170;BME280;46042;49.444;6.862;2022-12-29T06:35:45;97824.47;;;8.10;100.00
60170;BME280;46042;49.444;6.862;2022-12-29T06:38:12;97815.94;;;8.20;100.00
60170;BME280;46042;49.444;6.862;2022-12-29T06:40:39;97829.06;;;8.20;100.00
60170;BME280;46042;49.444;6.862;2022-12-29T06:43:07;97830.72;;;8.21;100.00
60170;BME280;46042;49.444;6.862;2022-12-29T06:45:34;97840.63;;;8.17;100.00
60170;BME280;46042;49.444;6.862;2022-12-29T06:48:00;97842.50;;;8.15;100.00
60170;BME280;46042;49.444;6.862;2022-12-29T06:50:27;97846.81;;;8.16;100.00
60170;BME280;46042;49.444;6.862;2022-12-29T06:52:54;97831.81;;;8.05;100.00
60170;BME280;46042;49.444;6.862;2022-12-29T06:55:20;97839.47;;;8.08;100.00
60170;BME280;46042;49.444;6.862;2022-12-29T06:57:47;97850.25;;;8.17;100.00
60170;BME280;46042;49.444;6.862;2022-12-29T07:00:14;97845.97;;;8.16;100.00
60170;BME280;46042;49.444;6.862;2022-12-29T07:02:50;97845.63;;;8.33;100.00
60170;BME280;46042;49.444;6.862;2022-12-29T07:05:17;97859.59;;;8.34;100.00
60170;BME280;46042;49.444;6.862;2022-12-29T07:07:43;97859.91;;;8.42;100.00
60170;BME280;46042;49.444;6.862;2022-12-29T07:10:10;97841.84;;;8.37;100.00
60170;BME280;46042;49.444;6.862;2022-12-29T07:12:38;97848.44;;;8.43;100.00
60170;BME280;46042;49.444;6.862;2022-12-29T07:15:06;97847.09;;;8.37;100.00
60170;BME280;46042;49.444;6.862;2022-12-29T07:17:33;97851.59;;;8.35;100.00
60170;BME280;46042;49.444;6.862;2022-12-29T07:20:00;97848.56;;;8.42;100.00
60170;BME280;46042;49.444;6.862;2022-12-29T07:22:26;97854.66;;;8.42;100.00
60170;BME280;46042;49.444;6.862;2022-12-29T07:24:53;97860.97;;;8.39;100.00
60170;BME280;46042;49.444;6.862;2022-12-29T07:27:20;97861.78;;;8.40;100.00
60170;BME280;46042;49.444;6.862;2022-12-29T07:29:48;97879.13;;;8.43;100.00
60170;BME280;46042;49.444;6.862;2022-12-29T07:32:15;97870.06;;;8.47;100.00
60170;BME280;46042;49.444;6.862;2022-12-29T07:34:42;97872.09;;;8.56;100.00
60170;BME280;46042;49.444;6.862;2022-12-29T07:37:11;97872.91;;;8.44;100.00
60170;BME280;46042;49.444;6.862;2022-12-29T07:39:38;97897.72;;;8.39;100.00
60170;BME280;46042;49.444;6.862;2022-12-29T07:42:05;97880.25;;;8.38;100.00
60170;BME280;46042;49.444;6.862;2022-12-29T07:44:32;97888.03;;;8.40;100.00
60170;BME280;46042;49.444;6.862;2022-12-29T07:46:59;97882.88;;;8.38;100.00
60170;BME280;46042;49.444;6.862;2022-12-29T07:49:25;97887.41;;;8.36;100.00
60170;BME280;46042;49.444;6.862;2022-12-29T07:51:53;97888.78;;;8.29;100.00
60170;BME280;46042;49.444;6.862;2022-12-29T07:54:20;97882.28;;;8.35;100.00
60170;BME280;46042;49.444;6.862;2022-12-29T07:56:49;97888.34;;;8.35;100.00
60170;BME280;46042;49.444;6.862;2022-12-29T07:59:16;97898.75;;;8.37;100.00
60170;BME280;46042;49.444;6.862;2022-12-29T08:01:43;97896.53;;;8.44;100.00
60170;BME280;46042;49.444;6.862;2022-12-29T08:04:11;97897.50;;;8.43;100.00
60170;BME280;46042;49.444;6.862;2022-12-29T08:06:38;97913.47;;;8.39;100.00
60170;BME280;46042;49.444;6.862;2022-12-29T08:09:04;97895.09;;;8.39;100.00
60170;BME280;46042;49.444;6.862;2022-12-29T08:11:43;97896.34;;;8.34;100.00
60170;BME280;46042;49.444;6.862;2022-12-29T08:14:10;97896.34;;;8.34;100.00
60170;BME280;46042;49.444;6.862;2022-12-29T08:16:37;97923.31;;;8.36;100.00
60170;BME280;46042;49.444;6.862;2022-12-29T08:19:04;97899.69;;;8.36;100.00
60170;BME280;46042;49.444;6.862;2022-12-29T08:21:31;97911.66;;;8.40;100.00
60170;BME280;46042;49.444;6.862;2022-12-29T08:23:58;97910.94;;;8.38;100.00
60170;BME280;46042;49.444;6.862;2022-12-29T08:26:25;97926.03;;;8.34;100.00
60170;BME280;46042;49.444;6.862;2022-12-29T08:28:53;97936.84;;;8.43;100.00
60170;BME280;46042;49.444;6.862;2022-12-29T08:31:21;97939.47;;;8.43;100.00
60170;BME280;46042;49.444;6.862;2022-12-29T08:33:48;97923.31;;;8.36;100.00
60170;BME280;46042;49.444;6.862;2022-12-29T08:36:15;97915.75;;;8.31;100.00
60170;BME280;46042;49.444;6.862;2022-12-29T08:38:41;97927.94;;;8.32;100.00
60170;BME280;46042;49.444;6.862;2022-12-29T08:41:08;97925.09;;;8.35;100.00
60170;BME280;46042;49.444;6.862;2022-12-29T08:43:35;97926.97;;;8.33;100.00
60170;BME280;46042;49.444;6.862;2022-12-29T08:46:02;97937.69;;;8.30;100.00
60170;BME280;46042;49.444;6.862;2022-12-29T08:48:28;97951.84;;;8.28;100.00
60170;BME280;46042;49.444;6.862;2022-12-29T08:50:55;97960.34;;;8.18;100.00
60170;BME280;46042;49.444;6.862;2022-12-29T08:53:22;97982.59;;;8.13;100.00
60170;BME280;46042;49.444;6.862;2022-12-29T08:55:56;97987.94;;;8.11;100.00
60170;BME280;46042;49.444;6.862;2022-12-29T08:58:30;97996.84;;;8.08;100.00
60170;BME280;46042;49.444;6.862;2022-12-29T09:00:57;97992.84;;;8.03;100.00
60170;BME280;46042;49.444;6.862;2022-12-29T09:03:25;97989.69;;;7.97;100.00
60170;BME280;46042;49.444;6.862;2022-12-29T09:06:12;98003.56;;;8.00;100.00
60170;BME280;46042;49.444;6.862;2022-12-29T09:08:39;97996.72;;;7.97;100.00
60170;BME280;46042;49.444;6.862;2022-12-29T09:11:08;98001.97;;;7.97;100.00
60170;BME280;46042;49.444;6.862;2022-12-29T09:13:35;98000.50;;;7.93;100.00
60170;BME280;46042;49.444;6.862;2022-12-29T09:16:02;98010.53;;;7.86;100.00
60170;BME280;46042;49.444;6.862;2022-12-29T09:18:29;97996.38;;;7.89;100.00
60170;BME280;46042;49.444;6.862;2022-12-29T09:20:59;97996.19;;;7.92;100.00
60170;BME280;46042;49.444;6.862;2022-12-29T09:23:27;98003.41;;;7.88;100.00
60170;BME280;46042;49.444;6.862;2022-12-29T09:25:53;98021.84;;;7.87;100.00
60170;BME280;46042;49.444;6.862;2022-12-29T09:28:21;98014.50;;;7.79;100.00
60170;BME280;46042;49.444;6.862;2022-12-29T09:30:50;98019.75;;;7.79;100.00
60170;BME280;46042;49.444;6.862;2022-12-29T09:33:17;98024.22;;;7.77;100.00
60170;BME280;46042;49.444;6.862;2022-12-29T09:35:50;98029.19;;;7.81;100.00
60170;BME280;46042;49.444;6.862;2022-12-29T09:38:18;98035.47;;;7.79;100.00
60170;BME280;46042;49.444;6.862;2022-12-29T09:40:54;98042.28;;;7.81;100.00
60170;BME280;46042;49.444;6.862;2022-12-29T09:49:06;98046.00;;;7.92;100.00
60170;BME280;46042;49.444;6.862;2022-12-29T09:51:37;98037.28;;;7.91;100.00
60170;BME280;46042;49.444;6.862;2022-12-29T09:59:50;98037.16;;;8.07;100.00
60170;BME280;46042;49.444;6.862;2022-12-29T10:04:54;98034.84;;;8.16;100.00
60170;BME280;46042;49.444;6.862;2022-12-29T10:10:35;98036.88;;;8.25;100.00
60170;BME280;46042;49.444;6.862;2022-12-29T10:13:08;98038.13;;;8.32;100.00
60170;BME280;46042;49.444;6.862;2022-12-29T10:16:13;98034.38;;;8.36;100.00
60170;BME280;46042;49.444;6.862;2022-12-29T10:21:33;98030.19;;;8.34;100.00
60170;BME280;46042;49.444;6.862;2022-12-29T10:24:04;98032.81;;;8.34;100.00
60170;BME280;46042;49.444;6.862;2022-12-29T10:26:39;98028.50;;;8.33;100.00
60170;BME280;46042;49.444;6.862;2022-12-29T10:29:17;98029.03;;;8.38;100.00
60170;BME280;46042;49.444;6.862;2022-12-29T10:31:54;98030.78;;;8.37;100.00
60170;BME280;46042;49.444;6.862;2022-12-29T10:34:31;98024.94;;;8.34;100.00
60170;BME280;46042;49.444;6.862;2022-12-29T10:37:05;98038.94;;;8.20;100.00
60170;BME280;46042;49.444;6.862;2022-12-29T10:39:49;98044.09;;;8.21;100.00
60170;BME280;46042;49.444;6.862;2022-12-29T10:44:47;98043.06;;;8.24;100.00
60170;BME280;46042;49.444;6.862;2022-12-29T10:47:18;98039.50;;;8.25;100.00
60170;BME280;46042;49.444;6.862;2022-12-29T10:49:48;98044.97;;;8.35;100.00
60170;BME280;46042;49.444;6.862;2022-12-29T10:52:17;98038.50;;;8.40;100.00
60170;BME280;46042;49.444;6.862;2022-12-29T10:55:13;98046.03;;;8.45;100.00
60170;BME280;46042;49.444;6.862;2022-12-29T10:57:45;98042.28;;;8.49;100.00
60170;BME280;46042;49.444;6.862;2022-12-29T11:00:17;98039.84;;;8.46;100.00
60170;BME280;46042;49.444;6.862;2022-12-29T11:05:52;98037.34;;;8.45;100.00
60170;BME280;46042;49.444;6.862;2022-12-29T11:08:25;98029.91;;;8.51;100.00
60170;BME280;46042;49.444;6.862;2022-12-29T11:11:04;98032.44;;;8.53;100.00
60170;BME280;46042;49.444;6.862;2022-12-29T11:13:56;98037.50;;;8.56;100.00
60170;BME280;46042;49.444;6.862;2022-12-29T11:16:32;98032.03;;;8.59;100.00
60170;BME280;46042;49.444;6.862;2022-12-29T11:19:01;98043.47;;;8.58;100.00
60170;BME280;46042;49.444;6.862;2022-12-29T11:21:35;98044.00;;;8.63;100.00
60170;BME280;46042;49.444;6.862;2022-12-29T11:26:49;98045.75;;;8.63;100.00
60170;BME280;46042;49.444;6.862;2022-12-29T11:29:21;98041.28;;;8.65;100.00
60170;BME280;46042;49.444;6.862;2022-12-29T11:31:51;98043.06;;;8.64;100.00
60170;BME280;46042;49.444;6.862;2022-12-29T11:34:33;98042.19;;;8.64;100.00
60170;BME280;46042;49.444;6.862;2022-12-29T11:37:04;98043.06;;;8.64;100.00
60170;BME280;46042;49.444;6.862;2022-12-29T11:39:40;98037.50;;;8.69;100.00
60170;BME280;46042;49.444;6.862;2022-12-29T11:42:16;98038.00;;;8.74;100.00
60170;BME280;46042;49.444;6.862;2022-12-29T11:44:48;98050.41;;;8.85;100.00
60170;BME280;46042;49.444;6.862;2022-12-29T11:47:27;98042.66;;;8.84;100.00
60170;BME280;46042;49.444;6.862;2022-12-29T11:50:02;98041.50;;;8.88;100.00
60170;BME280;46042;49.444;6.862;2022-12-29T11:52:32;98029.94;;;8.90;100.00
60170;BME280;46042;49.444;6.862;2022-12-29T11:55:04;98028.34;;;9.01;100.00
60170;BME280;46042;49.444;6.862;2022-12-29T11:57:34;98028.84;;;9.06;100.00
60170;BME280;46042;49.444;6.862;2022-12-29T12:00:22;98021.59;;;9.09;100.00
60170;BME280;46042;49.444;6.862;2022-12-29T12:05:28;98007.72;;;9.07;100.00
60170;BME280;46042;49.444;6.862;2022-12-29T12:11:03;98026.56;;;9.01;100.00
60170;BME280;46042;49.444;6.862;2022-12-29T12:13:41;98021.31;;;9.01;100.00
60170;BME280;46042;49.444;6.862;2022-12-29T12:16:15;98013.75;;;8.96;100.00
60170;BME280;46042;49.444;6.862;2022-12-29T12:18:50;98009.66;;;8.92;100.00
60170;BME280;46042;49.444;6.862;2022-12-29T12:24:31;98014.19;;;8.90;100.00
60170;BME280;46042;49.444;6.862;2022-12-29T12:27:20;98022.25;;;8.87;100.00
60170;BME280;46042;49.444;6.862;2022-12-29T12:30:03;98023.91;;;8.88;100.00
60170;BME280;46042;49.444;6.862;2022-12-29T12:35:14;98010.38;;;8.94;100.00
60170;BME280;46042;49.444;6.862;2022-12-29T12:47:03;97998.63;;;9.00;100.00
60170;BME280;46042;49.444;6.862;2022-12-29T12:55:06;98006.31;;;8.90;100.00
60170;BME280;46042;49.444;6.862;2022-12-29T12:58:18;98011.44;;;8.79;100.00
60170;BME280;46042;49.444;6.862;2022-12-29T13:03:47;98020.28;;;8.78;100.00
60170;BME280;46042;49.444;6.862;2022-12-29T13:06:22;98019.00;;;8.71;100.00
60170;BME280;46042;49.444;6.862;2022-12-29T13:09:11;98022.78;;;8.79;100.00
60170;BME280;46042;49.444;6.862;2022-12-29T13:11:51;98023.00;;;8.76;100.00
60170;BME280;46042;49.444;6.862;2022-12-29T13:17:12;98016.47;;;8.82;100.00
60170;BME280;46042;49.444;6.862;2022-12-29T13:32:17;98037.59;;;8.80;100.00
60170;BME280;46042;49.444;6.862;2022-12-29T13:37:24;98036.31;;;8.86;100.00
60170;BME280;46042;49.444;6.862;2022-12-29T13:39:58;98027.84;;;8.82;100.00
60170;BME280;46042;49.444;6.862;2022-12-29T13:42:27;98035.16;;;8.77;100.00
60170;BME280;46042;49.444;6.862;2022-12-29T13:45:13;98027.41;;;8.76;100.00
60170;BME280;46042;49.444;6.862;2022-12-29T13:47:49;98026.47;;;8.77;100.00
60170;BME280;46042;49.444;6.862;2022-12-29T13:50:21;98032.53;;;8.77;100.00
60170;BME280;46042;49.444;6.862;2022-12-29T14:00:16;98039.47;;;8.65;100.00
60170;BME280;46042;49.444;6.862;2022-12-29T14:07:44;98030.88;;;8.50;100.00
60170;BME280;46042;49.444;6.862;2022-12-29T14:10:45;98050.25;;;8.48;99.75
60170;BME280;46042;49.444;6.862;2022-12-29T14:13:17;98048.78;;;8.44;99.81
60170;BME280;46042;49.444;6.862;2022-12-29T14:15:54;98043.53;;;8.44;99.17
60170;BME280;46042;49.444;6.862;2022-12-29T14:18:23;98040.03;;;8.43;100.00
60170;BME280;46042;49.444;6.862;2022-12-29T14:21:10;98036.59;;;8.43;100.00
60170;BME280;46042;49.444;6.862;2022-12-29T14:23:46;98041.94;;;8.41;100.00
60170;BME280;46042;49.444;6.862;2022-12-29T14:26:33;98044.97;;;8.35;100.00
60170;BME280;46042;49.444;6.862;2022-12-29T14:29:16;98048.44;;;8.35;100.00
60170;BME280;46042;49.444;6.862;2022-12-29T14:34:57;98052.94;;;8.33;100.00
60170;BME280;46042;49.444;6.862;2022-12-29T14:37:27;98061.88;;;8.31;99.52
60170;BME280;46042;49.444;6.862;2022-12-29T14:40:14;98055.78;;;8.30;98.83
60170;BME280;46042;49.444;6.862;2022-12-29T14:42:46;98051.06;;;8.35;99.88
60170;BME280;46042;49.444;6.862;2022-12-29T14:47:43;98058.19;;;8.33;96.81
60170;BME280;46042;49.444;6.862;2022-12-29T14:52:54;98063.31;;;8.22;99.75
60170;BME280;46042;49.444;6.862;2022-12-29T14:55:47;98076.75;;;8.17;99.44
60170;BME280;46042;49.444;6.862;2022-12-29T14:58:35;98075.22;;;8.13;98.89
60170;BME280;46042;49.444;6.862;2022-12-29T15:01:34;98066.19;;;8.04;100.00
60170;BME280;46042;49.444;6.862;2022-12-29T15:04:18;98077.00;;;8.00;100.00
60170;BME280;46042;49.444;6.862;2022-12-29T15:06:48;98075.69;;;7.92;100.00
60170;BME280;46042;49.444;6.862;2022-12-29T15:11:53;98083.69;;;7.76;100.00
60170;BME280;46042;49.444;6.862;2022-12-29T15:16:56;98083.44;;;7.66;100.00
60170;BME280;46042;49.444;6.862;2022-12-29T15:19:24;98095.06;;;7.62;100.00
60170;BME280;46042;49.444;6.862;2022-12-29T15:21:52;98093.94;;;7.52;100.00
60170;BME280;46042;49.444;6.862;2022-12-29T15:24:20;98089.72;;;7.49;100.00
60170;BME280;46042;49.444;6.862;2022-12-29T15:26:49;98101.34;;;7.45;100.00
60170;BME280;46042;49.444;6.862;2022-12-29T15:29:37;98103.22;;;7.43;100.00
60170;BME280;46042;49.444;6.862;2022-12-29T15:32:23;98097.97;;;7.43;100.00
60170;BME280;46042;49.444;6.862;2022-12-29T15:34:53;98093.13;;;7.37;100.00
60170;BME280;46042;49.444;6.862;2022-12-29T15:37:36;98091.91;;;7.28;100.00